Time;durP1;ratioP1;P1;durP2;ratioP2;P2;SDS_P1;SDS_P2;PMS_P1;PMS_P2;Temp;Humidity;BMP_temperature;BMP_pressure;BME280_temperature;BME280_humidity;BME280_pressure;Samples;Min_cycle;Max_cycle;Signal;HPM_P1;HPM_P2
2022/09/04 00:01:03;;;;;;;34.40;32.53;;;16.30;99.90;;;;;;5034888;28;20186;-74
2022/09/04 00:03:35;;;;;;;48.03;45.47;;;16.30;99.90;;;;;;5053001;28;20220;-76
2022/09/04 00:06:07;;;;;;;49.40;46.80;;;16.20;99.90;;;;;;5053355;28;20770;-76
2022/09/04 00:08:51;;;;;;;58.20;54.97;;;16.20;99.90;;;;;;5051278;28;20209;-75
2022/09/04 00:11:37;;;;;;;47.07;44.37;;;16.20;99.90;;;;;;5044643;28;20182;-75
2022/09/04 00:14:08;;;;;;;72.07;68.10;;;16.10;99.90;;;;;;5033815;28;20313;-76
2022/09/04 00:17:02;;;;;;;39.30;36.87;;;16.10;99.90;;;;;;5032176;28;20179;-76
2022/09/04 00:20:22;;;;;;;32.57;30.57;;;16.00;99.90;;;;;;5033262;28;20673;-76
2022/09/04 00:23:04;;;;;;;45.20;42.60;;;16.00;99.90;;;;;;4953137;28;20344;-77
2022/09/04 00:25:52;;;;;;;27.13;25.63;;;16.00;99.90;;;;;;5023957;28;20306;-77
2022/09/04 00:28:36;;;;;;;24.67;22.97;;;15.90;99.90;;;;;;5031238;28;20175;-76
2022/09/04 00:31:28;;;;;;;20.53;19.13;;;15.90;99.90;;;;;;5037615;28;20182;-77
2022/09/04 00:34:17;;;;;;;19.30;18.07;;;15.80;99.90;;;;;;5051320;28;20228;-77
2022/09/04 00:36:50;;;;;;;20.73;19.53;;;15.70;99.90;;;;;;5052314;28;20681;-76
2022/09/04 00:39:27;;;;;;;17.10;15.90;;;15.70;99.90;;;;;;5051549;28;20183;-76
2022/09/04 00:42:30;;;;;;;25.50;23.93;;;15.60;99.90;;;;;;5040811;28;20233;-77
2022/09/04 00:45:11;;;;;;;29.20;27.70;;;15.70;99.90;;;;;;5001199;28;20304;-76
2022/09/04 00:48:09;;;;;;;22.03;20.70;;;15.60;99.90;;;;;;5030723;28;20179;-75
2022/09/04 00:51:06;;;;;;;20.90;19.63;;;15.60;99.90;;;;;;5032084;28;20262;-76
2022/09/04 00:53:40;;;;;;;22.37;21.07;;;15.60;99.90;;;;;;5052247;28;20183;-75
2022/09/04 00:56:32;;;;;;;23.77;22.10;;;15.50;99.90;;;;;;5052668;28;20630;-76
2022/09/04 00:59:24;;;;;;;23.63;22.33;;;15.50;99.90;;;;;;5050666;28;20190;-76
2022/09/04 01:01:56;;;;;;;24.20;22.27;;;15.40;99.90;;;;;;5056428;28;20215;-74
2022/09/04 01:04:41;;;;;;;21.20;19.80;;;15.40;99.90;;;;;;5037916;28;20730;-75
2022/09/04 01:07:55;;;;;;;20.03;18.70;;;15.30;99.90;;;;;;5033301;28;20248;-76
2022/09/04 01:10:37;;;;;;;15.70;14.53;;;15.30;99.90;;;;;;5036965;28;20191;-75
2022/09/04 01:13:36;;;;;;;15.67;14.30;;;15.30;99.90;;;;;;5011229;28;20284;-76
2022/09/04 01:16:27;;;;;;;21.27;14.10;;;15.30;99.90;;;;;;5010964;28;20188;-76
2022/09/04 01:19:10;;;;;;;29.07;10.67;;;15.30;99.90;;;;;;5010620;28;20187;-76
2022/09/04 01:22:02;;;;;;;15.27;9.77;;;15.20;99.90;;;;;;5028252;28;20269;-76
2022/09/04 01:24:52;;;;;;;15.80;9.47;;;15.20;99.90;;;;;;5052481;28;20202;-75
2022/09/04 01:27:27;;;;;;;14.50;10.90;;;15.20;99.90;;;;;;5048240;28;20182;-76
2022/09/04 01:30:10;;;;;;;21.03;10.53;;;15.10;99.90;;;;;;5052023;28;20177;-76
2022/09/04 01:32:58;;;;;;;10.40;8.47;;;15.10;99.90;;;;;;5035664;28;20563;-76
2022/09/04 01:35:48;;;;;;;19.67;9.27;;;15.10;99.90;;;;;;5031858;28;20249;-76
2022/09/04 01:38:32;;;;;;;10.93;9.10;;;15.00;99.90;;;;;;5029865;28;20190;-76
2022/09/04 01:41:27;;;;;;;12.93;9.00;;;15.00;99.90;;;;;;5030796;28;20256;-75
2022/09/04 01:43:54;;;;;;;30.80;12.03;;;15.00;99.90;;;;;;5051024;28;20217;-76
2022/09/04 01:46:33;;;;;;;10.77;9.53;;;15.00;99.90;;;;;;5051667;28;20174;-76
2022/09/04 01:49:29;;;;;;;17.20;8.90;;;14.90;99.90;;;;;;5049717;28;20191;-76
2022/09/04 01:52:16;;;;;;;14.40;8.47;;;14.90;99.90;;;;;;5043244;28;20194;-75
2022/09/04 01:55:02;;;;;;;19.43;8.93;;;14.90;99.90;;;;;;5030709;28;20203;-76
2022/09/04 01:57:37;;;;;;;17.70;8.90;;;14.90;99.90;;;;;;5029543;28;20213;-77
2022/09/04 02:00:13;;;;;;;19.30;9.00;;;14.80;99.90;;;;;;5030836;28;20529;-77
2022/09/04 02:02:42;;;;;;;15.83;9.27;;;14.80;99.90;;;;;;5044068;28;20209;-76
2022/09/04 02:05:27;;;;;;;12.13;9.73;;;14.80;99.90;;;;;;5051897;28;20308;-76
2022/09/04 02:08:02;;;;;;;31.13;13.40;;;14.80;99.90;;;;;;5049662;28;20228;-77
2022/09/04 02:10:37;;;;;;;13.63;8.40;;;14.80;99.90;;;;;;5050031;28;20185;-75
2022/09/04 02:13:22;;;;;;;17.47;8.57;;;14.80;99.90;;;;;;5037947;28;20236;-77
2022/09/04 02:15:57;;;;;;;45.43;42.30;;;14.80;99.90;;;;;;5030355;28;20213;-75
2022/09/04 02:18:47;;;;;;;51.33;47.37;;;14.80;99.90;;;;;;5029562;28;20227;-76
2022/09/04 02:21:35;;;;;;;40.83;37.07;;;14.90;99.90;;;;;;5031111;28;20559;-76
2022/09/04 02:24:28;;;;;;;48.07;36.67;;;15.00;99.90;;;;;;5011573;28;20204;-76
2022/09/04 02:26:59;;;;;;;26.13;18.57;;;15.00;99.90;;;;;;5010101;28;20183;-76
2022/09/04 02:29:53;;;;;;;49.67;17.20;;;15.00;99.90;;;;;;5011447;28;20190;-76
2022/09/04 02:32:53;;;;;;;46.87;11.87;;;15.10;99.90;;;;;;5010409;28;20187;-76
2022/09/04 02:35:26;;;;;;;37.67;11.90;;;15.00;99.90;;;;;;5043174;28;20240;-75
2022/09/04 02:38:03;;;;;;;54.13;13.37;;;15.10;99.90;;;;;;5020876;28;20282;-76
2022/09/04 02:40:44;;;;;;;53.30;18.13;;;15.00;99.90;;;;;;5029933;28;20190;-75
2022/09/04 02:43:38;;;;;;;58.30;21.17;;;15.10;99.90;;;;;;5029865;28;20222;-76
2022/09/04 02:46:34;;;;;;;48.60;44.97;;;15.10;99.90;;;;;;5030610;28;20217;-76
2022/09/04 02:49:29;;;;;;;112.23;74.50;;;15.10;99.90;;;;;;5049509;28;20274;-76
2022/09/04 02:52:26;;;;;;;102.13;67.43;;;15.20;99.90;;;;;;5030138;28;20587;-76
2022/09/04 02:55:03;;;;;;;93.47;69.10;;;15.20;99.90;;;;;;5029713;28;20688;-77
2022/09/04 02:58:00;;;;;;;166.57;58.47;;;15.20;99.90;;;;;;5028893;28;20197;-77
2022/09/04 03:00:47;;;;;;;141.47;83.37;;;15.30;99.90;;;;;;5029783;28;20237;-75
2022/09/04 03:03:30;;;;;;;184.37;84.90;;;15.20;99.90;;;;;;5030777;28;20219;-75
2022/09/04 03:06:05;;;;;;;72.07;26.57;;;15.30;99.90;;;;;;5031475;28;20335;-77
2022/09/04 03:08:56;;;;;;;91.30;71.30;;;15.30;99.90;;;;;;5030307;28;20175;-76
2022/09/04 03:11:33;;;;;;;37.07;27.53;;;15.20;99.90;;;;;;5030052;28;20221;-77
2022/09/04 03:14:33;;;;;;;48.27;10.77;;;15.20;99.90;;;;;;5029366;28;20199;-75
2022/09/04 03:17:08;;;;;;;51.97;47.37;;;15.10;99.90;;;;;;5028835;28;20183;-77
2022/09/04 03:19:46;;;;;;;79.20;55.50;;;15.10;99.90;;;;;;5031240;28;20190;-75
2022/09/04 03:22:47;;;;;;;58.53;17.50;;;15.00;99.90;;;;;;5030492;28;20763;-76
2022/09/04 03:25:22;;;;;;;76.83;20.33;;;15.00;99.90;;;;;;5019556;28;20289;-77
2022/09/04 03:27:48;;;;;;;35.67;22.80;;;14.90;99.90;;;;;;5033630;28;20209;-75
2022/09/04 03:30:15;;;;;;;37.57;24.97;;;14.90;99.90;;;;;;5047889;28;20731;-75
2022/09/04 03:32:58;;;;;;;43.77;27.37;;;14.80;99.90;;;;;;5051537;28;20186;-75
2022/09/04 03:35:55;;;;;;;29.13;26.33;;;14.80;99.90;;;;;;5060417;28;20203;-76
2022/09/04 03:39:02;;;;;;;44.73;31.30;;;14.80;99.90;;;;;;5054569;28;20178;-76
2022/09/04 03:41:45;;;;;;;54.53;49.23;;;14.80;99.90;;;;;;5053449;28;20182;-76
2022/09/04 03:44:17;;;;;;;52.10;32.50;;;14.90;99.90;;;;;;5052810;28;20770;-77
2022/09/04 03:47:12;;;;;;;38.93;28.40;;;14.90;99.90;;;;;;5049399;28;20213;-77
2022/09/04 03:49:47;;;;;;;51.87;46.33;;;14.90;99.90;;;;;;5030361;28;20549;-77
2022/09/04 03:52:24;;;;;;;47.03;38.13;;;14.90;99.90;;;;;;5032657;28;20182;-76
2022/09/04 03:55:23;;;;;;;23.83;19.80;;;14.90;99.90;;;;;;5033738;28;20226;-76
2022/09/04 03:58:24;;;;;;;32.17;29.90;;;14.90;99.90;;;;;;5012140;28;20201;-76
2022/09/04 04:01:32;;;;;;;30.93;15.47;;;14.90;99.90;;;;;;5036374;28;20208;-77
2022/09/04 04:04:34;;;;;;;66.90;50.70;;;14.90;99.90;;;;;;5028624;22;20638;-73
2022/09/04 04:07:37;;;;;;;68.77;62.83;;;15.00;99.90;;;;;;5009496;28;20595;-75
2022/09/04 04:10:03;;;;;;;26.13;17.50;;;15.00;99.90;;;;;;5033604;28;20269;-76
2022/09/04 04:13:03;;;;;;;48.20;16.33;;;15.00;99.90;;;;;;5033129;28;20266;-75
2022/09/04 04:16:01;;;;;;;28.30;16.23;;;15.00;99.90;;;;;;5033111;28;20234;-75
2022/09/04 04:18:43;;;;;;;68.47;64.17;;;15.00;99.90;;;;;;5032454;28;20286;-76
2022/09/04 04:21:17;;;;;;;60.73;55.20;;;15.00;99.90;;;;;;5033208;28;20626;-76
2022/09/04 04:23:46;;;;;;;81.63;75.70;;;14.90;99.90;;;;;;5033379;28;20217;-75
2022/09/04 04:26:39;;;;;;;49.27;41.90;;;14.90;99.90;;;;;;5033276;28;20613;-75
2022/09/04 04:29:24;;;;;;;76.50;69.47;;;14.80;99.90;;;;;;5027742;28;20172;-75
2022/09/04 04:32:12;;;;;;;33.00;26.53;;;14.70;99.90;;;;;;5022458;28;20266;-75
2022/09/04 04:34:57;;;;;;;72.00;64.77;;;14.70;99.90;;;;;;5032546;28;20203;-75
2022/09/04 04:37:42;;;;;;;45.30;15.43;;;14.60;99.90;;;;;;5032136;28;20178;-75
2022/09/04 04:40:26;;;;;;;42.97;38.87;;;14.60;99.90;;;;;;5032750;28;20179;-75
2022/09/04 04:43:16;;;;;;;56.97;38.47;;;14.50;99.90;;;;;;5032435;28;20240;-76
2022/09/04 04:46:11;;;;;;;48.67;34.67;;;14.50;99.90;;;;;;5031639;28;20557;-75
2022/09/04 04:48:52;;;;;;;48.57;43.50;;;14.40;99.90;;;;;;5032249;28;20548;-75
2022/09/04 04:51:30;;;;;;;51.47;44.33;;;14.50;99.90;;;;;;5015940;28;20175;-75
2022/09/04 04:54:01;;;;;;;80.17;73.70;;;14.60;99.90;;;;;;5012618;28;20187;-75
2022/09/04 04:57:12;;;;;;;78.00;68.07;;;14.60;99.90;;;;;;5011903;28;20223;-75
2022/09/04 05:00:06;;;;;;;74.10;69.20;;;14.60;99.90;;;;;;5019834;28;20651;-75
2022/09/04 05:02:38;;;;;;;83.00;74.33;;;14.70;99.90;;;;;;5031787;28;20580;-74
2022/09/04 05:05:13;;;;;;;88.37;80.23;;;14.70;99.90;;;;;;5031429;28;20214;-75
2022/09/04 05:08:06;;;;;;;46.80;19.97;;;14.80;99.90;;;;;;5031403;28;20179;-75
2022/09/04 05:10:59;;;;;;;173.37;162.53;;;14.80;99.90;;;;;;5031724;28;20179;-75
2022/09/04 05:13:51;;;;;;;121.83;112.50;;;14.90;99.90;;;;;;5011800;28;20226;-75
2022/09/04 05:16:32;;;;;;;138.60;125.30;;;14.90;99.90;;;;;;5011631;28;20219;-75
2022/09/04 05:19:22;;;;;;;107.20;96.07;;;14.90;99.90;;;;;;5009183;28;20188;-75
2022/09/04 05:22:15;;;;;;;94.80;86.40;;;14.90;99.90;;;;;;5012008;28;20242;-75
2022/09/04 05:25:06;;;;;;;163.07;75.93;;;14.90;99.90;;;;;;5010967;28;20200;-75
2022/09/04 05:27:44;;;;;;;28.67;13.20;;;14.90;99.90;;;;;;5010251;28;20202;-73
2022/09/04 05:30:22;;;;;;;28.57;12.53;;;15.00;99.90;;;;;;5011818;28;20191;-74
2022/09/04 05:33:09;;;;;;;38.37;21.23;;;15.00;99.90;;;;;;5012376;28;20189;-74
2022/09/04 05:35:50;;;;;;;80.13;72.33;;;15.10;99.90;;;;;;5010058;28;20231;-74
2022/09/04 05:38:45;;;;;;;81.90;48.80;;;15.20;99.90;;;;;;5011119;28;20188;-74
2022/09/04 05:41:49;;;;;;;42.47;22.47;;;15.20;99.90;;;;;;5028880;28;20253;-75
2022/09/04 05:44:43;;;;;;;29.63;22.93;;;15.20;99.90;;;;;;5031239;28;20207;-75
2022/09/04 05:47:30;;;;;;;130.50;117.53;;;15.20;99.90;;;;;;5030175;28;20193;-74
2022/09/04 05:50:34;;;;;;;305.87;285.67;;;15.30;99.90;;;;;;5028936;28;20282;-73
2022/09/04 05:53:39;;;;;;;54.90;27.77;;;15.40;99.90;;;;;;5029770;28;20182;-74
2022/09/04 05:56:17;;;;;;;57.57;28.57;;;15.40;99.90;;;;;;5028990;28;20222;-73
2022/09/04 05:59:19;;;;;;;64.13;58.10;;;15.40;99.90;;;;;;5030706;28;20257;-74
2022/09/04 06:02:19;;;;;;;111.73;102.47;;;15.30;99.90;;;;;;5031323;28;20284;-74
2022/09/04 06:05:17;;;;;;;84.13;76.57;;;15.20;99.90;;;;;;5029325;28;20597;-75
2022/09/04 06:08:21;;;;;;;72.27;30.13;;;15.30;99.90;;;;;;5030021;28;20202;-74
2022/09/04 06:11:17;;;;;;;197.33;182.23;;;15.30;99.90;;;;;;5029014;28;20186;-74
2022/09/04 06:14:24;;;;;;;294.77;277.97;;;15.50;99.90;;;;;;5031205;28;20562;-74
2022/09/04 06:16:52;;;;;;;170.90;159.77;;;15.50;99.90;;;;;;5030298;28;20647;-73
2022/09/04 06:19:38;;;;;;;104.57;97.60;;;15.50;99.90;;;;;;5029987;28;20434;-73
2022/09/04 06:22:35;;;;;;;103.47;97.53;;;15.60;99.90;;;;;;5030758;28;20214;-73
2022/09/04 06:25:32;;;;;;;132.83;125.30;;;15.70;99.90;;;;;;5029392;28;20209;-73
2022/09/04 06:28:39;;;;;;;129.53;122.23;;;15.70;99.90;;;;;;5030026;28;20206;-73
2022/09/04 06:31:07;;;;;;;128.60;121.77;;;15.60;99.90;;;;;;5030788;28;20187;-74
2022/09/04 06:34:20;;;;;;;140.37;131.23;;;15.70;99.90;;;;;;5030487;28;20674;-73
2022/09/04 06:36:59;;;;;;;124.50;117.50;;;15.70;99.90;;;;;;5006486;28;20194;-74
2022/09/04 06:39:50;;;;;;;156.03;147.37;;;15.80;99.90;;;;;;5029700;28;20189;-74
2022/09/04 06:42:46;;;;;;;125.30;118.20;;;16.00;99.90;;;;;;5046279;28;20221;-73
2022/09/04 06:45:15;;;;;;;108.87;98.77;;;16.00;99.90;;;;;;5031658;28;20202;-73
2022/09/04 06:48:19;;;;;;;165.60;156.93;;;16.10;99.90;;;;;;5030078;28;20302;-72
2022/09/04 06:51:08;;;;;;;108.23;100.20;;;16.50;99.90;;;;;;5023268;28;20191;-73
2022/09/04 06:53:47;;;;;;;119.80;111.00;;;16.80;99.90;;;;;;5029645;28;20195;-74
2022/09/04 06:56:25;;;;;;;19.83;15.87;;;17.00;99.90;;;;;;5028884;28;20206;-74
2022/09/04 06:59:12;;;;;;;19.03;17.33;;;17.20;99.90;;;;;;5034017;28;20187;-74
2022/09/04 07:02:00;;;;;;;43.07;40.57;;;17.60;99.90;;;;;;5034670;28;20553;-75
2022/09/04 07:05:00;;;;;;;33.47;31.17;;;18.10;99.90;;;;;;5033867;28;20243;-75
2022/09/04 07:07:31;;;;;;;39.73;37.73;;;18.30;99.90;;;;;;5033476;28;20620;-75
2022/09/04 07:10:10;;;;;;;29.80;28.13;;;18.60;99.90;;;;;;5033904;28;20183;-74
2022/09/04 07:12:59;;;;;;;43.17;40.70;;;18.60;99.90;;;;;;5033374;28;20204;-76
2022/09/04 07:15:55;;;;;;;49.33;46.87;;;18.80;99.90;;;;;;5034790;28;20203;-75
2022/09/04 07:18:39;;;;;;;28.60;27.10;;;19.00;99.90;;;;;;5031521;28;20234;-74
2022/09/04 07:21:13;;;;;;;21.97;20.87;;;19.70;99.90;;;;;;5034349;28;20549;-74
2022/09/04 07:24:26;;;;;;;18.57;17.57;;;20.30;99.90;;;;;;5034723;28;20705;-76
2022/09/04 07:27:25;;;;;;;12.17;11.57;;;20.70;99.90;;;;;;5010473;28;20194;-73
2022/09/04 07:30:01;;;;;;;51.20;48.63;;;21.50;99.90;;;;;;5032742;28;20209;-73
2022/09/04 07:33:20;;;;;;;31.50;29.92;;;22.00;99.90;;;;;;5028469;28;20266;-73
2022/09/04 07:36:12;;;;;;;15.00;14.30;;;22.40;99.90;;;;;;4973188;28;20215;-73
2022/09/04 07:38:53;;;;;;;11.60;11.00;;;23.00;99.90;;;;;;4972189;28;20196;-73
2022/09/04 07:41:46;;;;;;;13.50;12.90;;;23.30;99.90;;;;;;4998422;28;20187;-74
2022/09/04 07:44:28;;;;;;;16.33;15.43;;;23.50;99.90;;;;;;5032667;28;20194;-74
2022/09/04 07:47:15;;;;;;;46.88;44.65;;;23.20;99.90;;;;;;5031911;28;20175;-76
2022/09/04 07:50:05;;;;;;;68.20;64.97;;;23.40;99.90;;;;;;5014554;28;20218;-76
2022/09/04 07:52:44;;;;;;;54.72;51.95;;;23.80;99.90;;;;;;5014514;28;20215;-75
2022/09/04 07:55:20;;;;;;;40.03;38.15;;;24.40;99.90;;;;;;5013254;28;20298;-75
2022/09/04 07:58:18;;;;;;;32.55;31.00;;;24.50;99.90;;;;;;5022966;28;20190;-73
2022/09/04 08:01:22;;;;;;;13.07;12.25;;;24.90;99.90;;;;;;5033773;28;20256;-74
2022/09/04 08:04:06;;;;;;;4.63;4.43;;;25.10;99.90;;;;;;5033868;28;20674;-74
2022/09/04 08:06:43;;;;;;;14.02;13.20;;;25.30;99.90;;;;;;5034271;28;20183;-74
2022/09/04 08:09:31;;;;;;;25.00;23.58;;;25.40;99.90;;;;;;5031322;28;20183;-74
2022/09/04 08:12:14;;;;;;;27.42;26.13;;;25.50;99.90;;;;;;5032941;28;20197;-75
2022/09/04 08:14:55;;;;;;;34.42;32.75;;;25.60;99.90;;;;;;5013628;28;20202;-74
2022/09/04 08:17:46;;;;;;;20.15;19.05;;;25.60;99.90;;;;;;5012327;28;20218;-72
2022/09/04 08:20:22;;;;;;;16.85;15.77;;;25.90;99.90;;;;;;5012533;28;20193;-74
2022/09/04 08:23:04;;;;;;;33.05;31.35;;;25.80;99.90;;;;;;5023690;28;20218;-74
2022/09/04 08:25:58;;;;;;;43.05;40.92;;;25.70;99.90;;;;;;5031096;28;20240;-74
2022/09/04 08:28:56;;;;;;;8.77;8.38;;;26.00;99.90;;;;;;5031148;28;20175;-73
2022/09/04 08:31:41;;;;;;;15.07;14.27;;;25.70;99.90;;;;;;5009228;28;20195;-73
2022/09/04 08:34:31;;;;;;;19.15;17.85;;;25.70;99.90;;;;;;5033334;28;20190;-74
2022/09/04 08:37:16;;;;;;;37.90;35.95;;;25.90;99.90;;;;;;5032474;28;20221;-74
2022/09/04 08:40:03;;;;;;;21.52;20.50;;;26.20;99.90;;;;;;5032984;28;20183;-74
2022/09/04 08:42:37;;;;;;;38.03;36.22;;;26.50;99.90;;;;;;5032749;28;20206;-74
2022/09/04 08:45:17;;;;;;;9.52;8.80;;;26.70;99.90;;;;;;5032031;28;20195;-74
2022/09/04 08:48:20;;;;;;;7.53;7.00;;;27.10;99.90;;;;;;5032530;28;20237;-75
2022/09/04 08:51:07;;;;;;;7.28;6.57;;;27.70;99.90;;;;;;5033025;28;20186;-74
2022/09/04 08:53:42;;;;;;;5.13;4.93;;;27.60;99.90;;;;;;5031518;28;20178;-75
2022/09/04 08:56:25;;;;;;;5.85;5.55;;;27.60;99.90;;;;;;5032640;28;20580;-74
2022/09/04 08:59:28;;;;;;;4.53;4.32;;;27.70;99.90;;;;;;5032318;28;20197;-74
2022/09/04 09:02:02;;;;;;;8.63;8.23;;;27.90;99.90;;;;;;5032825;28;20183;-74
2022/09/04 09:04:31;;;;;;;14.60;13.85;;;28.30;99.90;;;;;;5031303;28;20210;-74
2022/09/04 09:07:23;;;;;;;9.80;9.38;;;28.50;99.90;;;;;;5030683;28;20182;-74
2022/09/04 09:09:58;;;;;;;14.80;13.98;;;28.50;99.90;;;;;;5028760;28;20617;-73
2022/09/04 09:13:01;;;;;;;17.77;16.88;;;28.50;99.90;;;;;;5032011;28;20282;-74
2022/09/04 09:15:51;;;;;;;17.95;17.13;;;28.20;99.90;;;;;;5032588;28;20210;-75
2022/09/04 09:18:30;;;;;;;12.65;11.85;;;28.40;99.90;;;;;;5031802;28;20191;-74
2022/09/04 09:21:24;;;;;;;15.52;14.75;;;28.70;99.90;;;;;;5031307;28;20559;-75
2022/09/04 09:24:18;;;;;;;25.73;24.40;;;28.60;99.90;;;;;;5032155;28;20703;-74
2022/09/04 09:27:05;;;;;;;27.58;26.08;;;28.50;99.90;;;;;;5031802;28;20240;-74
2022/09/04 09:29:57;;;;;;;25.13;23.88;;;28.50;99.90;;;;;;5032432;28;20190;-74
2022/09/04 09:32:41;;;;;;;17.83;16.88;;;28.60;99.90;;;;;;5031189;28;20623;-74
2022/09/04 09:35:07;;;;;;;28.48;27.13;;;28.40;99.90;;;;;;5031970;28;20210;-74
2022/09/04 09:37:36;;;;;;;29.63;28.23;;;28.30;99.90;;;;;;5029676;28;20174;-76
2022/09/04 09:40:17;;;;;;;16.58;15.82;;;28.60;99.90;;;;;;5032041;28;20558;-75
2022/09/04 09:42:48;;;;;;;23.50;22.15;;;28.60;99.90;;;;;;5032145;28;20553;-75
2022/09/04 09:45:23;;;;;;;11.90;11.38;;;28.60;99.90;;;;;;5032071;28;20198;-75
2022/09/04 09:48:31;;;;;;;7.30;6.97;;;29.30;99.90;;;;;;5030998;28;20182;-75
2022/09/04 09:51:18;;;;;;;4.32;4.13;;;29.80;99.90;;;;;;5023064;28;20198;-75
2022/09/04 09:54:21;;;;;;;5.00;4.70;;;30.10;99.90;;;;;;5031777;28;20183;-75
2022/09/04 09:57:09;;;;;;;3.58;3.47;;;30.90;99.90;;;;;;5031016;28;20182;-74
2022/09/04 10:00:05;;;;;;;5.20;4.90;;;31.40;99.30;;;;;;5030684;28;20186;-75
2022/09/04 10:02:34;;;;;;;4.43;4.22;;;31.30;99.00;;;;;;5031486;28;20257;-74
2022/09/04 10:05:21;;;;;;;9.73;9.13;;;31.60;99.70;;;;;;5031392;28;20265;-73
2022/09/04 10:07:59;;;;;;;5.13;4.90;;;32.00;99.00;;;;;;5030886;28;20187;-71
2022/09/04 10:10:53;;;;;;;6.03;5.63;;;32.10;97.80;;;;;;5031688;28;20202;-72
2022/09/04 10:13:50;;;;;;;6.38;6.07;;;31.60;97.80;;;;;;5031553;28;20186;-73
2022/09/04 10:16:41;;;;;;;9.35;8.75;;;31.50;97.40;;;;;;5030301;28;20361;-73
2022/09/04 10:19:24;;;;;;;16.35;15.65;;;31.40;97.10;;;;;;5029053;28;20726;-74
2022/09/04 10:21:57;;;;;;;18.40;17.48;;;31.50;96.60;;;;;;5022214;28;20682;-74
2022/09/04 10:24:45;;;;;;;20.15;19.20;;;31.60;95.70;;;;;;5031155;28;20203;-73
2022/09/04 10:27:37;;;;;;;23.73;22.52;;;31.30;96.50;;;;;;5030511;28;20229;-74
2022/09/04 10:30:21;;;;;;;34.40;32.75;;;31.60;95.70;;;;;;5031385;28;20258;-74
2022/09/04 10:33:05;;;;;;;64.60;59.17;;;32.10;94.70;;;;;;5029431;28;20198;-74
2022/09/04 10:36:19;;;;;;;36.25;34.50;;;32.80;94.10;;;;;;5011285;28;20223;-74
2022/09/04 10:42:16;;;;;;;10.98;10.48;;;32.00;92.90;;;;;;5011129;28;20183;-75
2022/09/04 10:44:41;;;;;;;23.85;22.80;;;33.10;90.60;;;;;;5011400;28;20205;-72
2022/09/04 10:47:45;;;;;;;14.25;13.57;;;33.50;91.70;;;;;;5012211;28;20259;-72
2022/09/04 10:50:23;;;;;;;10.82;10.32;;;33.70;89.70;;;;;;5029769;28;20555;-73
2022/09/04 10:53:20;;;;;;;22.75;21.70;;;33.10;90.00;;;;;;5030988;28;20218;-72
2022/09/04 10:56:08;;;;;;;17.60;16.60;;;32.70;91.00;;;;;;5031140;28;20199;-73
2022/09/04 10:59:12;;;;;;;7.70;7.35;;;32.80;88.90;;;;;;5030109;28;20652;-73
2022/09/04 11:02:15;;;;;;;2.70;2.60;;;32.80;87.70;;;;;;5013763;28;20181;-74
2022/09/04 11:05:05;;;;;;;20.48;19.13;;;32.30;85.40;;;;;;5024882;28;20584;-73
2022/09/04 11:07:42;;;;;;;7.43;6.93;;;33.30;88.10;;;;;;5027436;28;20187;-74
2022/09/04 11:10:29;;;;;;;4.00;3.70;;;33.40;85.60;;;;;;5027641;28;20185;-73
2022/09/04 11:14:02;;;;;;;4.55;4.25;;;33.10;84.70;;;;;;5015527;28;20214;-73
2022/09/04 11:17:10;;;;;;;4.55;4.40;;;33.80;82.90;;;;;;4979264;28;20184;-73
2022/09/04 11:19:54;;;;;;;5.18;4.82;;;33.40;82.50;;;;;;4995014;28;20286;-73
2022/09/04 11:22:39;;;;;;;5.38;5.07;;;32.30;82.10;;;;;;5009865;28;20207;-72
2022/09/04 11:25:31;;;;;;;22.90;21.75;;;30.70;86.40;;;;;;5010842;28;20341;-73
2022/09/04 11:28:31;;;;;;;23.00;21.90;;;29.60;89.20;;;;;;5010113;28;20542;-74
2022/09/04 11:31:00;;;;;;;55.72;52.95;;;29.10;90.10;;;;;;5018914;28;20183;-71
2022/09/04 11:33:40;;;;;;;40.38;38.28;;;28.60;90.90;;;;;;5014432;28;20188;-72
2022/09/04 11:36:47;;;;;;;28.17;26.45;;;28.50;90.80;;;;;;5015729;28;20732;-73
2022/09/04 11:39:24;;;;;;;32.42;30.15;;;28.60;91.70;;;;;;5029583;28;20190;-73
2022/09/04 11:42:24;;;;;;;43.03;38.97;;;29.60;90.50;;;;;;5026542;28;20191;-74
2022/09/04 11:45:09;;;;;;;45.25;42.90;;;31.00;87.90;;;;;;5025218;28;20226;-75
2022/09/04 11:47:46;;;;;;;22.48;21.08;;;32.60;83.00;;;;;;5032691;28;20774;-72
2022/09/04 11:50:55;;;;;;;17.33;16.27;;;32.80;80.80;;;;;;5032440;28;20214;-73
2022/09/04 11:53:20;;;;;;;8.63;8.23;;;32.60;79.60;;;;;;5027573;28;20191;-74
2022/09/04 11:56:17;;;;;;;4.75;4.55;;;33.00;79.10;;;;;;5033535;28;20225;-74
2022/09/04 11:59:04;;;;;;;3.88;3.78;;;33.30;76.30;;;;;;5031638;28;20175;-73
2022/09/04 12:01:30;;;;;;;5.18;4.90;;;33.70;74.70;;;;;;5033282;28;20217;-74
2022/09/04 12:04:06;;;;;;;9.30;4.15;;;34.40;75.00;;;;;;5033320;28;20301;-73
2022/09/04 12:06:58;;;;;;;3.58;3.33;;;34.90;71.90;;;;;;5032436;28;20269;-74
2022/09/04 12:09:50;;;;;;;34.65;32.95;;;35.60;69.40;;;;;;5033375;28;20191;-74
2022/09/04 12:12:37;;;;;;;7.72;7.43;;;35.50;65.70;;;;;;5033323;28;20261;-74
2022/09/04 12:15:26;;;;;;;12.75;12.07;;;33.90;67.90;;;;;;5032885;28;20203;-74
2022/09/04 12:18:26;;;;;;;14.30;13.65;;;34.30;67.40;;;;;;5032466;28;20179;-73
2022/09/04 12:21:34;;;;;;;4.65;4.28;;;33.30;68.70;;;;;;5033237;28;20179;-74
2022/09/04 12:24:31;;;;;;;3.28;3.08;;;31.60;72.40;;;;;;5031808;28;20213;-73
2022/09/04 12:27:06;;;;;;;3.13;3.00;;;32.50;68.70;;;;;;5032503;28;20603;-74
2022/09/04 12:29:49;;;;;;;12.55;11.90;;;34.00;66.50;;;;;;5032304;28;20172;-73
2022/09/04 12:32:34;;;;;;;40.67;38.65;;;35.10;62.80;;;;;;5032766;28;20190;-74
2022/09/04 12:35:19;;;;;;;220.45;209.65;;;35.60;62.90;;;;;;5033038;28;20648;-73
2022/09/04 12:38:22;;;;;;;277.77;263.75;;;35.90;59.90;;;;;;5032128;28;20266;-74
2022/09/04 12:41:10;;;;;;;62.83;59.85;;;34.40;62.40;;;;;;5032760;28;20178;-73
2022/09/04 12:43:52;;;;;;;12.90;12.35;;;32.80;66.70;;;;;;5030946;28;20222;-73
2022/09/04 12:46:37;;;;;;;72.60;69.22;;;33.80;64.20;;;;;;5031861;28;20233;-73
2022/09/04 12:49:11;;;;;;;151.13;143.73;;;34.60;60.90;;;;;;5032443;28;20175;-73
2022/09/04 12:52:07;;;;;;;376.42;356.55;;;35.60;59.30;;;;;;5032974;28;20174;-74
2022/09/04 12:55:06;;;;;;;421.52;398.60;;;36.60;57.20;;;;;;5031512;28;20211;-73
2022/09/04 12:58:02;;;;;;;304.13;288.92;;;37.20;54.60;;;;;;5025293;28;20187;-72
2022/09/04 13:00:39;;;;;;;253.30;240.80;;;37.50;54.10;;;;;;5002761;28;20664;-73
2022/09/04 13:03:33;;;;;;;187.35;178.35;;;37.60;53.50;;;;;;5011642;28;20309;-72
2022/09/04 13:06:22;;;;;;;115.53;109.85;;;37.40;52.70;;;;;;5012055;28;20266;-73
2022/09/04 13:09:12;;;;;;;87.38;83.20;;;37.90;51.70;;;;;;5011612;28;20653;-75
2022/09/04 13:12:09;;;;;;;101.40;96.60;;;38.80;49.70;;;;;;5018387;28;20186;-72
2022/09/04 13:14:44;;;;;;;58.25;55.50;;;38.70;49.10;;;;;;5029756;28;20707;-77
2022/09/04 13:17:16;;;;;;;127.38;121.30;;;38.40;48.80;;;;;;5030861;28;20213;-76
2022/09/04 13:20:08;;;;;;;95.78;91.32;;;38.20;47.40;;;;;;5030259;28;20179;-75
2022/09/04 13:23:03;;;;;;;92.95;88.65;;;37.70;48.00;;;;;;5031663;28;20206;-75
2022/09/04 13:25:52;;;;;;;82.50;78.60;;;38.20;46.60;;;;;;5031288;28;20207;-75
2022/09/04 13:28:44;;;;;;;39.55;37.72;;;38.60;47.00;;;;;;5031438;28;20178;-76
2022/09/04 13:31:18;;;;;;;58.40;55.65;;;39.60;44.70;;;;;;5031282;28;20278;-76
2022/09/04 13:34:08;;;;;;;60.95;58.05;;;38.40;45.20;;;;;;5031586;28;20179;-76
2022/09/04 13:36:44;;;;;;;102.82;98.05;;;38.00;45.70;;;;;;5033059;28;20213;-77
2022/09/04 13:39:15;;;;;;;82.25;78.43;;;38.20;45.70;;;;;;5032956;28;20187;-77
2022/09/04 13:42:23;;;;;;;97.88;93.28;;;38.30;45.60;;;;;;5035588;28;20239;-78
2022/09/04 13:44:59;;;;;;;63.50;60.45;;;38.40;45.90;;;;;;4994280;28;20219;-76
2022/09/04 13:47:29;;;;;;;69.22;66.00;;;39.10;45.20;;;;;;4986214;28;20191;-77
2022/09/04 13:50:26;;;;;;;82.60;78.65;;;38.30;44.00;;;;;;5023440;28;20605;-77
2022/09/04 13:53:11;;;;;;;14.15;13.50;;;38.50;44.60;;;;;;5026917;28;20187;-77
2022/09/04 13:55:45;;;;;;;54.10;51.45;;;39.60;41.90;;;;;;5029251;28;20202;-76
2022/09/04 13:58:20;;;;;;;41.78;39.80;;;39.10;43.80;;;;;;5032237;28;20555;-76
2022/09/04 14:00:55;;;;;;;82.63;78.63;;;37.60;45.30;;;;;;5032155;28;20190;-77
2022/09/04 14:03:47;;;;;;;98.00;93.40;;;37.40;46.80;;;;;;5048276;28;20209;-77
2022/09/04 14:06:17;;;;;;;98.72;94.15;;;37.60;46.00;;;;;;5038288;28;20701;-77
2022/09/04 14:08:46;;;;;;;88.30;84.00;;;38.30;45.20;;;;;;5032226;28;20252;-77
2022/09/04 14:11:14;;;;;;;26.42;25.23;;;38.20;43.40;;;;;;5028517;28;20187;-77